sensor_id;sensor_type;location;lat;lon;timestamp;pressure;altitude;pressure_sealevel;temperature;humidity
70434;BME280;57876;47.792;12.960;2024-01-30T00:02:04;98171.59;;;19.07;39.48
70434;BME280;57876;47.792;12.960;2024-01-30T00:04:29;98170.47;;;19.08;39.78
70434;BME280;57876;47.792;12.960;2024-01-30T00:06:53;98171.28;;;19.09;39.88
70434;BME280;57876;47.792;12.960;2024-01-30T00:09:18;98169.88;;;19.11;39.82
70434;BME280;57876;47.792;12.960;2024-01-30T00:11:42;98163.88;;;19.09;39.79
70434;BME280;57876;47.792;12.960;2024-01-30T00:14:07;98167.94;;;19.12;39.67
70434;BME280;57876;47.792;12.960;2024-01-30T00:16:31;98165.19;;;19.12;39.65
70434;BME280;57876;47.792;12.960;2024-01-30T00:18:56;98168.75;;;19.12;39.68
70434;BME280;57876;47.792;12.960;2024-01-30T00:21:20;98178.59;;;19.13;39.88
70434;BME280;57876;47.792;12.960;2024-01-30T00:23:45;98163.75;;;19.14;39.67
70434;BME280;57876;47.792;12.960;2024-01-30T00:26:10;98174.44;;;19.16;39.80
70434;BME280;57876;47.792;12.960;2024-01-30T00:28:36;98182.97;;;19.14;39.83
70434;BME280;57876;47.792;12.960;2024-01-30T00:31:00;98172.81;;;19.15;39.69
70434;BME280;57876;47.792;12.960;2024-01-30T00:33:25;98179.91;;;19.16;39.75
70434;BME280;57876;47.792;12.960;2024-01-30T00:35:49;98185.13;;;19.18;39.77
70434;BME280;57876;47.792;12.960;2024-01-30T00:38:15;98195.25;;;19.17;39.51
70434;BME280;57876;47.792;12.960;2024-01-30T00:40:39;98194.44;;;19.17;39.72
70434;BME280;57876;47.792;12.960;2024-01-30T00:43:04;98193.63;;;19.16;39.68
70434;BME280;57876;47.792;12.960;2024-01-30T00:45:28;98198.31;;;19.16;39.48
70434;BME280;57876;47.792;12.960;2024-01-30T00:47:52;98197.50;;;19.15;39.71
70434;BME280;57876;47.792;12.960;2024-01-30T00:50:17;98201.66;;;19.12;40.04
70434;BME280;57876;47.792;12.960;2024-01-30T00:52:41;98207.16;;;19.12;39.67
70434;BME280;57876;47.792;12.960;2024-01-30T00:55:09;98213.75;;;19.11;39.92
70434;BME280;57876;47.792;12.960;2024-01-30T00:57:33;98210.47;;;19.09;39.92
70434;BME280;57876;47.792;12.960;2024-01-30T00:59:57;98212.75;;;19.07;39.76
70434;BME280;57876;47.792;12.960;2024-01-30T01:02:22;98214.69;;;19.07;39.72
70434;BME280;57876;47.792;12.960;2024-01-30T01:04:46;98214.69;;;19.07;39.86
70434;BME280;57876;47.792;12.960;2024-01-30T01:07:11;98220.47;;;19.05;39.70
70434;BME280;57876;47.792;12.960;2024-01-30T01:09:35;98220.47;;;19.05;39.83
70434;BME280;57876;47.792;12.960;2024-01-30T01:12:02;98221.59;;;19.04;39.86
70434;BME280;57876;47.792;12.960;2024-01-30T01:14:26;98222.69;;;19.03;39.82
70434;BME280;57876;47.792;12.960;2024-01-30T01:16:51;98235.28;;;19.04;39.84
70434;BME280;57876;47.792;12.960;2024-01-30T01:19:15;98222.69;;;19.03;39.96
70434;BME280;57876;47.792;12.960;2024-01-30T01:21:40;98222.69;;;19.03;39.78
70434;BME280;57876;47.792;12.960;2024-01-30T01:24:04;98219.13;;;19.03;39.81
70434;BME280;57876;47.792;12.960;2024-01-30T01:26:29;98219.94;;;19.03;39.72
70434;BME280;57876;47.792;12.960;2024-01-30T01:28:53;98231.72;;;19.04;39.86
70434;BME280;57876;47.792;12.960;2024-01-30T01:31:18;98222.69;;;19.03;39.84
70434;BME280;57876;47.792;12.960;2024-01-30T01:33:42;98221.59;;;19.04;40.05
70434;BME280;57876;47.792;12.960;2024-01-30T01:36:06;98223.19;;;19.05;39.98
70434;BME280;57876;47.792;12.960;2024-01-30T01:38:31;98222.91;;;19.07;39.71
70434;BME280;57876;47.792;12.960;2024-01-30T01:40:55;98226.13;;;19.09;39.67
70434;BME280;57876;47.792;12.960;2024-01-30T01:43:20;98221.47;;;19.09;39.74
70434;BME280;57876;47.792;12.960;2024-01-30T01:45:45;98226.94;;;19.09;39.54
70434;BME280;57876;47.792;12.960;2024-01-30T01:48:09;98223.09;;;19.10;39.72
70434;BME280;57876;47.792;12.960;2024-01-30T01:50:35;98219.22;;;19.11;39.85
70434;BME280;57876;47.792;12.960;2024-01-30T01:53:01;98214.88;;;19.10;39.77
70434;BME280;57876;47.792;12.960;2024-01-30T01:55:26;98214.88;;;19.10;39.72
70434;BME280;57876;47.792;12.960;2024-01-30T01:57:53;98215.69;;;19.11;39.83
70434;BME280;57876;47.792;12.960;2024-01-30T02:00:18;98219.56;;;19.10;39.84
70434;BME280;57876;47.792;12.960;2024-01-30T02:02:43;98216.81;;;19.10;39.79
70434;BME280;57876;47.792;12.960;2024-01-30T02:05:08;98218.22;;;19.07;39.79
70434;BME280;57876;47.792;12.960;2024-01-30T02:07:33;98213.84;;;19.06;39.88
70434;BME280;57876;47.792;12.960;2024-01-30T02:09:57;98213.34;;;19.04;39.74
70434;BME280;57876;47.792;12.960;2024-01-30T02:12:22;98219.13;;;19.03;39.85
70434;BME280;57876;47.792;12.960;2024-01-30T02:14:47;98226.56;;;19.02;39.56
70434;BME280;57876;47.792;12.960;2024-01-30T02:17:13;98227.66;;;19.01;39.82
70434;BME280;57876;47.792;12.960;2024-01-30T02:19:37;98221.69;;;18.99;39.92
70434;BME280;57876;47.792;12.960;2024-01-30T02:22:02;98224.44;;;18.99;39.94
70434;BME280;57876;47.792;12.960;2024-01-30T02:24:27;98222.78;;;18.98;39.84
70434;BME280;57876;47.792;12.960;2024-01-30T02:26:51;98219.22;;;18.98;39.74
70434;BME280;57876;47.792;12.960;2024-01-30T02:29:16;98231.00;;;18.98;40.00
70434;BME280;57876;47.792;12.960;2024-01-30T02:31:40;98219.22;;;18.98;39.87
70434;BME280;57876;47.792;12.960;2024-01-30T02:34:05;98215.69;;;18.97;39.83
70434;BME280;57876;47.792;12.960;2024-01-30T02:36:29;98227.16;;;18.99;39.87
70434;BME280;57876;47.792;12.960;2024-01-30T02:38:54;98225.53;;;18.98;39.95
70434;BME280;57876;47.792;12.960;2024-01-30T02:41:18;98227.16;;;18.99;39.74
70434;BME280;57876;47.792;12.960;2024-01-30T02:43:43;98222.50;;;19.00;39.81
70434;BME280;57876;47.792;12.960;2024-01-30T02:46:07;98217.00;;;19.00;40.09
70434;BME280;57876;47.792;12.960;2024-01-30T02:48:32;98217.81;;;19.00;39.88
70434;BME280;57876;47.792;12.960;2024-01-30T02:50:56;98217.81;;;19.00;39.80
70434;BME280;57876;47.792;12.960;2024-01-30T02:56:14;98217.81;;;19.00;40.01
70434;BME280;57876;47.792;12.960;2024-01-30T02:58:40;98213.66;;;19.03;39.87
70434;BME280;57876;47.792;12.960;2024-01-30T03:01:04;98222.69;;;19.03;39.73
70434;BME280;57876;47.792;12.960;2024-01-30T03:03:28;98208.69;;;19.05;39.81
70434;BME280;57876;47.792;12.960;2024-01-30T03:05:53;98210.63;;;19.04;39.78
70434;BME280;57876;47.792;12.960;2024-01-30T03:08:17;98205.13;;;19.04;39.73
70434;BME280;57876;47.792;12.960;2024-01-30T03:10:42;98202.69;;;19.03;39.87
70434;BME280;57876;47.792;12.960;2024-01-30T03:13:06;98203.19;;;19.05;39.83
70434;BME280;57876;47.792;12.960;2024-01-30T03:15:30;98206.75;;;19.05;40.08
70434;BME280;57876;47.792;12.960;2024-01-30T03:17:55;98205.63;;;19.06;39.90
70434;BME280;57876;47.792;12.960;2024-01-30T03:20:19;98196.28;;;19.07;39.73
70434;BME280;57876;47.792;12.960;2024-01-30T03:22:45;98196.28;;;19.07;39.72
70434;BME280;57876;47.792;12.960;2024-01-30T03:25:09;98199.84;;;19.08;39.92
70434;BME280;57876;47.792;12.960;2024-01-30T03:27:33;98196.28;;;19.07;39.85
70434;BME280;57876;47.792;12.960;2024-01-30T03:29:58;98191.91;;;19.06;39.90
70434;BME280;57876;47.792;12.960;2024-01-30T03:32:22;98200.13;;;19.06;39.81
70434;BME280;57876;47.792;12.960;2024-01-30T03:34:47;98196.06;;;19.04;39.90
70434;BME280;57876;47.792;12.960;2024-01-30T03:37:11;98187.34;;;19.02;39.90
70434;BME280;57876;47.792;12.960;2024-01-30T03:39:35;98197.50;;;19.01;40.06
70434;BME280;57876;47.792;12.960;2024-01-30T03:42:00;98189.59;;;19.00;39.73
70434;BME280;57876;47.792;12.960;2024-01-30T03:44:25;98192.94;;;18.97;39.75
70434;BME280;57876;47.792;12.960;2024-01-30T03:46:49;98194.56;;;18.98;39.83
70434;BME280;57876;47.792;12.960;2024-01-30T03:49:14;98191.00;;;18.97;39.90
70434;BME280;57876;47.792;12.960;2024-01-30T03:51:38;98189.38;;;18.96;39.76
70434;BME280;57876;47.792;12.960;2024-01-30T03:54:03;98187.47;;;18.97;39.61
70434;BME280;57876;47.792;12.960;2024-01-30T03:56:27;98186.63;;;18.96;39.78
70434;BME280;57876;47.792;12.960;2024-01-30T03:58:51;98174.84;;;18.96;39.87
70434;BME280;57876;47.792;12.960;2024-01-30T04:01:16;98183.88;;;18.96;39.83
70434;BME280;57876;47.792;12.960;2024-01-30T04:03:41;98183.88;;;18.96;39.89
70434;BME280;57876;47.792;12.960;2024-01-30T04:06:05;98182.78;;;18.97;39.78
70434;BME280;57876;47.792;12.960;2024-01-30T04:08:30;98178.41;;;18.96;39.84
70434;BME280;57876;47.792;12.960;2024-01-30T04:10:54;98175.38;;;18.98;39.76
70434;BME280;57876;47.792;12.960;2024-01-30T04:13:18;98170.69;;;18.98;39.57
70434;BME280;57876;47.792;12.960;2024-01-30T04:15:43;98175.38;;;18.98;39.83
70434;BME280;57876;47.792;12.960;2024-01-30T04:18:07;98178.91;;;18.98;39.86
70434;BME280;57876;47.792;12.960;2024-01-30T04:20:31;98176.97;;;18.99;39.61
70434;BME280;57876;47.792;12.960;2024-01-30T04:22:56;98178.09;;;18.98;39.88
70434;BME280;57876;47.792;12.960;2024-01-30T04:25:20;98175.88;;;19.00;39.73
70434;BME280;57876;47.792;12.960;2024-01-30T04:27:45;98181.88;;;19.02;39.81
70434;BME280;57876;47.792;12.960;2024-01-30T04:30:10;98185.09;;;19.04;40.07
70434;BME280;57876;47.792;12.960;2024-01-30T04:32:34;98173.31;;;19.03;39.79
70434;BME280;57876;47.792;12.960;2024-01-30T04:34:59;98186.41;;;19.06;39.78
70434;BME280;57876;47.792;12.960;2024-01-30T04:37:24;98185.31;;;19.07;39.71
70434;BME280;57876;47.792;12.960;2024-01-30T04:39:48;98173.72;;;19.10;39.67
70434;BME280;57876;47.792;12.960;2024-01-30T04:42:13;98177.00;;;19.12;39.77
70434;BME280;57876;47.792;12.960;2024-01-30T04:44:37;98182.66;;;19.16;39.86
70434;BME280;57876;47.792;12.960;2024-01-30T04:47:02;98181.25;;;19.19;39.72
70434;BME280;57876;47.792;12.960;2024-01-30T04:49:26;98183.69;;;19.20;39.77
70434;BME280;57876;47.792;12.960;2024-01-30T04:51:51;98182.22;;;19.23;39.64
70434;BME280;57876;47.792;12.960;2024-01-30T04:54:15;98173.72;;;19.24;39.81
70434;BME280;57876;47.792;12.960;2024-01-30T04:56:39;98175.31;;;19.25;39.60
70434;BME280;57876;47.792;12.960;2024-01-30T04:59:04;98178.56;;;19.27;39.39
70434;BME280;57876;47.792;12.960;2024-01-30T05:01:28;98181.03;;;19.29;39.72
70434;BME280;57876;47.792;12.960;2024-01-30T05:03:52;98184.56;;;19.29;39.61
70434;BME280;57876;47.792;12.960;2024-01-30T05:06:26;98188.34;;;19.33;39.67
70434;BME280;57876;47.792;12.960;2024-01-30T05:08:51;98182.84;;;19.33;39.32
70434;BME280;57876;47.792;12.960;2024-01-30T05:11:15;98182.03;;;19.33;39.77
70434;BME280;57876;47.792;12.960;2024-01-30T05:13:40;98184.47;;;19.34;39.68
70434;BME280;57876;47.792;12.960;2024-01-30T05:16:04;98182.03;;;19.33;39.61
70434;BME280;57876;47.792;12.960;2024-01-30T05:18:28;98193.50;;;19.35;39.80
70434;BME280;57876;47.792;12.960;2024-01-30T05:20:53;98191.09;;;19.33;39.76
70434;BME280;57876;47.792;12.960;2024-01-30T05:23:17;98193.00;;;19.33;39.49
70434;BME280;57876;47.792;12.960;2024-01-30T05:25:42;98188.94;;;19.30;39.79
70434;BME280;57876;47.792;12.960;2024-01-30T05:28:06;98202.97;;;19.29;39.47
70434;BME280;57876;47.792;12.960;2024-01-30T05:30:30;98189.56;;;19.27;39.57
70434;BME280;57876;47.792;12.960;2024-01-30T05:32:55;98189.88;;;19.26;39.69
70434;BME280;57876;47.792;12.960;2024-01-30T05:35:19;98195.66;;;19.24;39.61
70434;BME280;57876;47.792;12.960;2024-01-30T05:37:45;98186.63;;;19.24;39.58
70434;BME280;57876;47.792;12.960;2024-01-30T05:40:10;98183.88;;;19.24;39.68
70434;BME280;57876;47.792;12.960;2024-01-30T05:42:34;98186.91;;;19.22;39.67
70434;BME280;57876;47.792;12.960;2024-01-30T05:44:59;98194.84;;;19.24;39.61
70434;BME280;57876;47.792;12.960;2024-01-30T05:47:23;98180.63;;;19.22;39.71
70434;BME280;57876;47.792;12.960;2024-01-30T05:49:47;98189.97;;;19.21;39.43
70434;BME280;57876;47.792;12.960;2024-01-30T05:52:12;98186.44;;;19.20;39.60
70434;BME280;57876;47.792;12.960;2024-01-30T05:54:36;98190.28;;;19.19;39.72
70434;BME280;57876;47.792;12.960;2024-01-30T05:57:01;98199.13;;;19.16;39.84
70434;BME280;57876;47.792;12.960;2024-01-30T05:59:25;98192.03;;;19.15;39.66
70434;BME280;57876;47.792;12.960;2024-01-30T06:01:49;98203.00;;;19.15;39.77
70434;BME280;57876;47.792;12.960;2024-01-30T06:04:14;98199.41;;;19.14;39.67
70434;BME280;57876;47.792;12.960;2024-01-30T06:06:39;98201.34;;;19.14;39.80
70434;BME280;57876;47.792;12.960;2024-01-30T06:09:03;98204.91;;;19.14;39.71
70434;BME280;57876;47.792;12.960;2024-01-30T06:11:28;98203.00;;;19.15;39.63
70434;BME280;57876;47.792;12.960;2024-01-30T06:13:52;98207.84;;;19.18;39.82
70434;BME280;57876;47.792;12.960;2024-01-30T06:16:16;98198.00;;;19.17;39.38
70434;BME280;57876;47.792;12.960;2024-01-30T06:18:41;98203.69;;;19.21;39.73
70434;BME280;57876;47.792;12.960;2024-01-30T06:21:05;98198.69;;;19.23;39.55
70434;BME280;57876;47.792;12.960;2024-01-30T06:23:30;98201.94;;;19.25;39.73
70434;BME280;57876;47.792;12.960;2024-01-30T06:25:54;98200.53;;;19.27;39.40
70434;BME280;57876;47.792;12.960;2024-01-30T06:28:18;98205.72;;;19.29;39.67
70434;BME280;57876;47.792;12.960;2024-01-30T06:30:43;98202.88;;;19.34;39.60
70434;BME280;57876;47.792;12.960;2024-01-30T06:33:12;98209.97;;;19.35;39.43
70434;BME280;57876;47.792;12.960;2024-01-30T06:35:37;98210.47;;;19.37;39.85
70434;BME280;57876;47.792;12.960;2024-01-30T06:38:04;98209.34;;;19.38;39.48
70434;BME280;57876;47.792;12.960;2024-01-30T06:40:28;98207.41;;;19.39;39.70
70434;BME280;57876;47.792;12.960;2024-01-30T06:42:53;98209.06;;;19.40;39.60
70434;BME280;57876;47.792;12.960;2024-01-30T06:45:17;98218.09;;;19.40;39.80
70434;BME280;57876;47.792;12.960;2024-01-30T06:47:41;98218.59;;;19.42;39.61
70434;BME280;57876;47.792;12.960;2024-01-30T06:50:06;98221.34;;;19.42;39.65
70434;BME280;57876;47.792;12.960;2024-01-30T06:52:31;98222.16;;;19.43;39.55
70434;BME280;57876;47.792;12.960;2024-01-30T06:54:55;98215.84;;;19.42;39.50
70434;BME280;57876;47.792;12.960;2024-01-30T06:57:19;98222.44;;;19.41;39.46
70434;BME280;57876;47.792;12.960;2024-01-30T06:59:44;98228.25;;;19.40;39.47
70434;BME280;57876;47.792;12.960;2024-01-30T07:02:09;98219.50;;;19.38;39.73
70434;BME280;57876;47.792;12.960;2024-01-30T07:04:34;98231.28;;;19.38;39.39
70434;BME280;57876;47.792;12.960;2024-01-30T07:06:58;98227.22;;;19.35;39.90
70434;BME280;57876;47.792;12.960;2024-01-30T07:09:23;98230.59;;;19.32;39.63
70434;BME280;57876;47.792;12.960;2024-01-30T07:11:47;98228.97;;;19.31;39.73
70434;BME280;57876;47.792;12.960;2024-01-30T07:14:11;98228.97;;;19.31;39.61
70434;BME280;57876;47.792;12.960;2024-01-30T07:16:36;98230.09;;;19.30;39.51
70434;BME280;57876;47.792;12.960;2024-01-30T07:19:01;98229.28;;;19.30;39.74
70434;BME280;57876;47.792;12.960;2024-01-30T07:21:25;98231.22;;;19.29;39.66
70434;BME280;57876;47.792;12.960;2024-01-30T07:23:52;98233.16;;;19.29;39.71
70434;BME280;57876;47.792;12.960;2024-01-30T07:26:16;98227.94;;;19.27;39.74
70434;BME280;57876;47.792;12.960;2024-01-30T07:28:41;98232.63;;;19.27;39.65
70434;BME280;57876;47.792;12.960;2024-01-30T07:31:05;98246.88;;;19.29;39.29
70434;BME280;57876;47.792;12.960;2024-01-30T07:33:30;98244.94;;;19.29;39.74
70434;BME280;57876;47.792;12.960;2024-01-30T07:35:55;98247.06;;;19.32;39.63
70434;BME280;57876;47.792;12.960;2024-01-30T07:38:20;98248.19;;;19.31;39.49
70434;BME280;57876;47.792;12.960;2024-01-30T07:40:45;98257.72;;;19.34;39.51
70434;BME280;57876;47.792;12.960;2024-01-30T07:43:10;98259.06;;;19.36;39.59
70434;BME280;57876;47.792;12.960;2024-01-30T07:45:34;98254.06;;;19.39;39.60
70434;BME280;57876;47.792;12.960;2024-01-30T07:47:59;98264.72;;;19.40;39.42
70434;BME280;57876;47.792;12.960;2024-01-30T07:50:26;98254.56;;;19.41;39.48
70434;BME280;57876;47.792;12.960;2024-01-30T07:52:51;98256.22;;;19.42;39.61
70434;BME280;57876;47.792;12.960;2024-01-30T07:55:48;98265.75;;;19.44;39.40
70434;BME280;57876;47.792;12.960;2024-01-30T07:58:12;98264.63;;;19.45;39.47
70434;BME280;57876;47.792;12.960;2024-01-30T08:00:37;98259.94;;;19.46;39.24
70434;BME280;57876;47.792;12.960;2024-01-30T08:03:01;98263.81;;;19.45;39.47
70434;BME280;57876;47.792;12.960;2024-01-30T08:05:25;98263.50;;;19.46;39.67
70434;BME280;57876;47.792;12.960;2024-01-30T08:07:50;98274.47;;;19.46;39.66
70434;BME280;57876;47.792;12.960;2024-01-30T08:10:15;98269.00;;;19.46;39.56
70434;BME280;57876;47.792;12.960;2024-01-30T08:12:39;98272.88;;;19.45;39.67
70434;BME280;57876;47.792;12.960;2024-01-30T08:15:04;98264.94;;;19.44;39.53
70434;BME280;57876;47.792;12.960;2024-01-30T08:17:29;98264.13;;;19.43;39.61
70434;BME280;57876;47.792;12.960;2024-01-30T08:19:53;98257.81;;;19.43;39.40
70434;BME280;57876;47.792;12.960;2024-01-30T08:22:17;98259.25;;;19.40;39.48
70434;BME280;57876;47.792;12.960;2024-01-30T08:24:42;98257.63;;;19.39;39.65
70434;BME280;57876;47.792;12.960;2024-01-30T08:27:07;98258.22;;;19.36;39.52
70434;BME280;57876;47.792;12.960;2024-01-30T08:29:33;98252.25;;;19.34;39.51
70434;BME280;57876;47.792;12.960;2024-01-30T08:31:58;98259.34;;;19.35;39.64
70434;BME280;57876;47.792;12.960;2024-01-30T08:34:23;98258.84;;;19.33;39.44
70434;BME280;57876;47.792;12.960;2024-01-30T08:36:47;98250.94;;;19.31;39.48
70434;BME280;57876;47.792;12.960;2024-01-30T08:39:12;98251.44;;;19.33;39.60
70434;BME280;57876;47.792;12.960;2024-01-30T08:41:36;98253.34;;;19.33;39.48
70434;BME280;57876;47.792;12.960;2024-01-30T08:44:00;98253.34;;;19.33;39.79
70434;BME280;57876;47.792;12.960;2024-01-30T08:46:25;98249.00;;;19.32;39.48
70434;BME280;57876;47.792;12.960;2024-01-30T08:48:49;98252.53;;;19.32;39.47
70434;BME280;57876;47.792;12.960;2024-01-30T08:51:14;98252.88;;;19.31;39.32
70434;BME280;57876;47.792;12.960;2024-01-30T08:53:39;98253.16;;;19.29;39.47
70434;BME280;57876;47.792;12.960;2024-01-30T08:56:04;98245.22;;;19.28;39.58
70434;BME280;57876;47.792;12.960;2024-01-30T08:58:29;98247.47;;;19.26;39.58
70434;BME280;57876;47.792;12.960;2024-01-30T09:00:53;98248.91;;;19.23;39.66
70434;BME280;57876;47.792;12.960;2024-01-30T09:03:18;98250.31;;;19.21;39.55
70434;BME280;57876;47.792;12.960;2024-01-30T09:05:42;98247.88;;;19.19;39.85
70434;BME280;57876;47.792;12.960;2024-01-30T09:08:06;98245.47;;;19.18;39.49
70434;BME280;57876;47.792;12.960;2024-01-30T09:10:31;98252.66;;;19.13;39.71
70434;BME280;57876;47.792;12.960;2024-01-30T09:12:55;98250.19;;;19.12;39.70
70434;BME280;57876;47.792;12.960;2024-01-30T09:15:19;98243.00;;;19.16;39.29
70434;BME280;57876;47.792;12.960;2024-01-30T09:17:44;98250.72;;;19.14;39.46
70434;BME280;57876;47.792;12.960;2024-01-30T09:20:09;98252.66;;;19.13;39.60
70434;BME280;57876;47.792;12.960;2024-01-30T09:22:34;98252.75;;;19.08;39.55
70434;BME280;57876;47.792;12.960;2024-01-30T09:24:59;98255.31;;;19.05;39.47
70434;BME280;57876;47.792;12.960;2024-01-30T09:27:23;98248.78;;;19.01;39.42
70434;BME280;57876;47.792;12.960;2024-01-30T09:29:48;98267.16;;;19.00;39.57
70434;BME280;57876;47.792;12.960;2024-01-30T09:32:12;98251.00;;;18.99;39.66
70434;BME280;57876;47.792;12.960;2024-01-30T09:34:37;98263.63;;;19.00;39.77
70434;BME280;57876;47.792;12.960;2024-01-30T09:37:01;98265.84;;;18.98;39.57
70434;BME280;57876;47.792;12.960;2024-01-30T09:39:26;98256.81;;;18.97;39.74
70434;BME280;57876;47.792;12.960;2024-01-30T09:42:04;98259.84;;;18.96;39.55
70434;BME280;57876;47.792;12.960;2024-01-30T09:44:29;98252.75;;;18.95;39.78
70434;BME280;57876;47.792;12.960;2024-01-30T09:46:55;98255.78;;;18.93;39.67
70434;BME280;57876;47.792;12.960;2024-01-30T09:49:20;98251.94;;;18.94;39.57
70434;BME280;57876;47.792;12.960;2024-01-30T09:51:45;98254.69;;;18.94;39.62
70434;BME280;57876;47.792;12.960;2024-01-30T09:54:10;98253.88;;;18.94;39.69
70434;BME280;57876;47.792;12.960;2024-01-30T09:56:37;98251.94;;;18.94;39.55
70434;BME280;57876;47.792;12.960;2024-01-30T09:59:02;98252.44;;;18.96;39.62
70434;BME280;57876;47.792;12.960;2024-01-30T10:01:26;98252.44;;;18.96;39.59
70434;BME280;57876;47.792;12.960;2024-01-30T10:03:51;98243.09;;;18.97;39.69
70434;BME280;57876;47.792;12.960;2024-01-30T10:06:18;98239.75;;;19.00;39.58
70434;BME280;57876;47.792;12.960;2024-01-30T10:08:44;98242.19;;;19.02;39.54
70434;BME280;57876;47.792;12.960;2024-01-30T10:11:09;98241.59;;;19.05;39.75
70434;BME280;57876;47.792;12.960;2024-01-30T10:13:33;98238.53;;;19.06;39.61
70434;BME280;57876;47.792;12.960;2024-01-30T10:15:58;98233.56;;;19.08;39.71
70434;BME280;57876;47.792;12.960;2024-01-30T10:18:22;98235.16;;;19.09;39.61
70434;BME280;57876;47.792;12.960;2024-01-30T10:20:47;98233.25;;;19.10;39.68
70434;BME280;57876;47.792;12.960;2024-01-30T10:23:12;98224.53;;;19.08;39.67
70434;BME280;57876;47.792;12.960;2024-01-30T10:25:37;98220.16;;;19.07;39.76
70434;BME280;57876;47.792;12.960;2024-01-30T10:28:02;98219.03;;;19.08;39.67
70434;BME280;57876;47.792;12.960;2024-01-30T10:30:27;98226.75;;;19.06;39.58
70434;BME280;57876;47.792;12.960;2024-01-30T10:32:52;98223.50;;;19.04;39.67
70434;BME280;57876;47.792;12.960;2024-01-30T10:35:16;98225.44;;;19.03;39.64
70434;BME280;57876;47.792;12.960;2024-01-30T10:37:47;98217.81;;;19.00;39.73
70434;BME280;57876;47.792;12.960;2024-01-30T10:40:13;98213.75;;;18.98;39.53
70434;BME280;57876;47.792;12.960;2024-01-30T10:42:42;98205.00;;;18.96;39.61
70434;BME280;57876;47.792;12.960;2024-01-30T10:45:09;98206.44;;;18.93;39.83
70434;BME280;57876;47.792;12.960;2024-01-30T10:47:35;98208.69;;;18.91;39.74
70434;BME280;57876;47.792;12.960;2024-01-30T10:50:02;98208.16;;;18.89;39.80
70434;BME280;57876;47.792;12.960;2024-01-30T10:52:28;98206.03;;;18.86;39.84
70434;BME280;57876;47.792;12.960;2024-01-30T10:54:54;98204.41;;;18.85;39.69
70434;BME280;57876;47.792;12.960;2024-01-30T10:57:19;98199.53;;;18.82;39.88
70434;BME280;57876;47.792;12.960;2024-01-30T10:59:47;98199.53;;;18.82;39.57
70434;BME280;57876;47.792;12.960;2024-01-30T11:02:12;98198.41;;;18.83;39.93
70434;BME280;57876;47.792;12.960;2024-01-30T11:04:40;98192.63;;;18.84;39.74
70434;BME280;57876;47.792;12.960;2024-01-30T11:07:17;98187.94;;;18.85;39.77
70434;BME280;57876;47.792;12.960;2024-01-30T11:10:12;98183.28;;;18.85;39.88
70434;BME280;57876;47.792;12.960;2024-01-30T11:12:40;98186.25;;;18.89;39.77
70434;BME280;57876;47.792;12.960;2024-01-30T11:15:07;98184.31;;;18.89;39.66
70434;BME280;57876;47.792;12.960;2024-01-30T11:17:53;98183.19;;;18.90;39.89
70434;BME280;57876;47.792;12.960;2024-01-30T11:20:30;98184.50;;;18.93;39.85
70434;BME280;57876;47.792;12.960;2024-01-30T11:22:56;98181.47;;;18.95;39.85
70434;BME280;57876;47.792;12.960;2024-01-30T11:25:22;98177.59;;;18.96;39.62
70434;BME280;57876;47.792;12.960;2024-01-30T11:27:50;98169.38;;;18.96;39.81
70434;BME280;57876;47.792;12.960;2024-01-30T11:30:33;98167.66;;;19.00;39.93
70434;BME280;57876;47.792;12.960;2024-01-30T11:33:08;98162.97;;;19.00;39.80
70434;BME280;57876;47.792;12.960;2024-01-30T11:35:42;98162.69;;;19.02;39.83
70434;BME280;57876;47.792;12.960;2024-01-30T11:38:08;98158.50;;;19.04;39.64
70434;BME280;57876;47.792;12.960;2024-01-30T11:40:34;98153.84;;;19.05;39.67
70434;BME280;57876;47.792;12.960;2024-01-30T11:43:01;98153.03;;;19.04;39.80
70434;BME280;57876;47.792;12.960;2024-01-30T11:45:28;98157.38;;;19.05;39.74
70434;BME280;57876;47.792;12.960;2024-01-30T11:47:54;98153.84;;;19.05;39.75
70434;BME280;57876;47.792;12.960;2024-01-30T11:50:18;98152.19;;;19.04;39.55
70434;BME280;57876;47.792;12.960;2024-01-30T11:52:43;98147.84;;;19.03;39.75
70434;BME280;57876;47.792;12.960;2024-01-30T11:55:08;98149.78;;;19.02;39.87
70434;BME280;57876;47.792;12.960;2024-01-30T11:57:32;98142.97;;;19.00;39.94
70434;BME280;57876;47.792;12.960;2024-01-30T11:59:58;98136.69;;;18.99;39.74
70434;BME280;57876;47.792;12.960;2024-01-30T12:02:23;98140.53;;;18.98;39.86
70434;BME280;57876;47.792;12.960;2024-01-30T12:04:47;98132.63;;;18.97;39.76
70434;BME280;57876;47.792;12.960;2024-01-30T12:07:12;98127.44;;;18.95;39.85
70434;BME280;57876;47.792;12.960;2024-01-30T12:09:40;98125.81;;;18.94;39.89
70434;BME280;57876;47.792;12.960;2024-01-30T12:12:04;98122.56;;;18.92;39.77
70434;BME280;57876;47.792;12.960;2024-01-30T12:14:31;98120.97;;;18.91;39.81
70434;BME280;57876;47.792;12.960;2024-01-30T12:16:55;98116.06;;;18.88;39.60
70434;BME280;57876;47.792;12.960;2024-01-30T12:19:26;98115.75;;;18.89;39.88
70434;BME280;57876;47.792;12.960;2024-01-30T12:21:57;98109.78;;;18.87;39.77
70434;BME280;57876;47.792;12.960;2024-01-30T12:24:25;98107.03;;;18.87;39.90
70434;BME280;57876;47.792;12.960;2024-01-30T12:26:50;98113.31;;;18.88;39.84
70434;BME280;57876;47.792;12.960;2024-01-30T12:29:16;98116.91;;;18.88;39.92
70434;BME280;57876;47.792;12.960;2024-01-30T12:31:42;98112.22;;;18.89;39.91
70434;BME280;57876;47.792;12.960;2024-01-30T12:34:06;98115.75;;;18.89;39.80
70434;BME280;57876;47.792;12.960;2024-01-30T12:36:31;98106.41;;;18.90;39.87
70434;BME280;57876;47.792;12.960;2024-01-30T12:38:56;98104.50;;;18.91;39.82
70434;BME280;57876;47.792;12.960;2024-01-30T12:41:21;98106.94;;;18.92;39.91
70434;BME280;57876;47.792;12.960;2024-01-30T12:43:45;98098.69;;;18.92;39.80